TimeCET,TemperatureF,Dew PointF,Humidity,Sea Level PressureIn,VisibilityMPH,Wind Direction,Wind SpeedMPH,Gust SpeedMPH,PrecipitationIn,Events,Conditions,WindDirDegrees,DateUTC
12:00 AM,51.8,30.2,44,30.18,-9999.0,West,9.2,-,N/A,,Clear,260,2013-02-12 23:00:00
12:30 AM,51.8,32.0,47,30.18,-9999.0,West,11.5,-,N/A,,Clear,280,2013-02-12 23:30:00
1:00 AM,51,32,37,30.19,12,West,11.5,,,,,280,2013-02-13 00:00:00
1:00 AM,50.0,32.0,50,30.18,-9999.0,West,11.5,-,N/A,,Clear,280,2013-02-13 00:00:00
1:30 AM,50.0,32.0,50,30.18,-9999.0,WNW,13.8,-,N/A,,Clear,290,2013-02-13 00:30:00
2:00 AM,50.0,32.0,50,30.18,-9999.0,WNW,17.3,-,N/A,,Clear,290,2013-02-13 01:00:00
2:30 AM,48.2,33.8,58,30.18,-9999.0,WNW,11.5,-,N/A,,Clear,300,2013-02-13 01:30:00
3:00 AM,48.2,33.8,58,30.15,-9999.0,WNW,10.4,-,N/A,,Clear,290,2013-02-13 02:00:00
3:30 AM,48.2,33.8,58,30.15,6.2,NW,10.4,-,N/A,,Partly Cloudy,310,2013-02-13 02:30:00
4:00 AM,50.0,33.8,54,30.15,6.2,WNW,18.4,-,N/A,,Partly Cloudy,300,2013-02-13 03:00:00
4:30 AM,51.8,33.8,50,30.15,6.2,WNW,19.6,-,N/A,,Partly Cloudy,300,2013-02-13 03:30:00
5:00 AM,51.8,33.8,50,30.12,6.2,WNW,20.7,-,N/A,,Partly Cloudy,290,2013-02-13 04:00:00
5:30 AM,51.8,35.6,54,30.15,-9999.0,WNW,18.4,-,N/A,,Clear,300,2013-02-13 04:30:00
6:00 AM,51.8,37.4,58,30.12,-9999.0,WNW,18.4,-,N/A,,Clear,290,2013-02-13 05:00:00
6:30 AM,51.8,39.2,62,30.15,-9999.0,WNW,16.1,-,N/A,,Clear,290,2013-02-13 05:30:00
7:00 AM,52,40,53,30.16,12,West,18.4,,,,,280,2013-02-13 06:00:00
7:00 AM,51.8,41.0,67,30.15,-9999.0,West,18.4,-,N/A,,Clear,280,2013-02-13 06:00:00
7:30 AM,51.8,41.0,67,30.15,6.2,WNW,18.4,-,N/A,,Partly Cloudy,290,2013-02-13 06:30:00
8:00 AM,51.8,41.0,67,30.15,6.2,WNW,19.6,-,N/A,,Partly Cloudy,290,2013-02-13 07:00:00
8:30 AM,51.8,41.0,67,30.18,6.2,WNW,20.7,-,N/A,,Partly Cloudy,290,2013-02-13 07:30:00
9:00 AM,53.6,41.0,62,30.18,6.2,WNW,18.4,-,N/A,,Partly Cloudy,300,2013-02-13 08:00:00
9:30 AM,55.4,42.8,63,30.21,6.2,NW,17.3,-,N/A,,Partly Cloudy,310,2013-02-13 08:30:00
10:00 AM,55.4,42.8,63,30.21,6.2,NW,13.8,-,N/A,,Partly Cloudy,320,2013-02-13 09:00:00
10:30 AM,57.2,42.8,59,30.21,6.2,NW,18.4,-,N/A,,Partly Cloudy,320,2013-02-13 09:30:00
11:00 AM,59.0,42.8,55,30.21,6.2,NNW,18.4,-,N/A,,Partly Cloudy,330,2013-02-13 10:00:00
11:30 AM,59.0,42.8,55,30.21,6.2,WNW,20.7,-,N/A,,Partly Cloudy,300,2013-02-13 10:30:00
12:00 PM,60.8,42.8,52,30.21,6.2,WNW,21.9,-,N/A,,Partly Cloudy,300,2013-02-13 11:00:00
12:30 PM,60.8,42.8,52,30.21,6.2,WNW,20.7,32.2,N/A,,Partly Cloudy,290,2013-02-13 11:30:00
1:00 PM,62,45,43,30.21,25,WNW,20.7,,,,Scattered Clouds,300,2013-02-13 12:00:00
1:00 PM,60.8,42.8,52,30.18,6.2,WNW,20.7,32.2,N/A,,Partly Cloudy,300,2013-02-13 12:00:00
1:30 PM,62.6,42.8,48,30.18,6.2,WNW,21.9,-,N/A,,Partly Cloudy,290,2013-02-13 12:30:00
2:00 PM,62.6,42.8,48,30.18,6.2,WNW,21.9,-,N/A,,Partly Cloudy,290,2013-02-13 13:00:00
2:30 PM,64.4,42.8,45,30.15,6.2,WNW,19.6,-,N/A,,Partly Cloudy,290,2013-02-13 13:30:00
3:00 PM,64.4,42.8,45,30.15,6.2,WNW,19.6,-,N/A,,Partly Cloudy,290,2013-02-13 14:00:00
3:30 PM,64.4,42.8,45,30.15,6.2,WNW,21.9,-,N/A,,Partly Cloudy,290,2013-02-13 14:30:00
4:00 PM,66.2,42.8,43,30.12,6.2,West,19.6,32.2,N/A,,Partly Cloudy,280,2013-02-13 15:00:00
4:30 PM,66.2,42.8,43,30.12,6.2,West,18.4,-,N/A,,Partly Cloudy,280,2013-02-13 15:30:00
5:00 PM,64.4,42.8,45,30.12,6.2,WNW,26.5,-,N/A,,Partly Cloudy,300,2013-02-13 16:00:00
5:30 PM,64.4,42.8,45,30.12,6.2,WNW,20.7,32.2,N/A,,Partly Cloudy,300,2013-02-13 16:30:00
6:00 PM,64.4,42.8,45,30.12,-9999.0,WNW,17.3,-,N/A,,Clear,300,2013-02-13 17:00:00
6:30 PM,62.6,42.8,48,30.12,-9999.0,WNW,17.3,-,N/A,,Clear,300,2013-02-13 17:30:00
7:00 PM,64,47,43,30.15,25,WNW,16.1,,,,,290,2013-02-13 18:00:00
7:00 PM,62.6,42.8,48,30.12,-9999.0,WNW,16.1,27.6,N/A,,Clear,290,2013-02-13 18:00:00
7:30 PM,62.6,42.8,48,30.15,-9999.0,West,15.0,-,N/A,,Clear,270,2013-02-13 18:30:00
8:00 PM,60.8,44.6,55,30.15,-9999.0,West,16.1,-,N/A,,Clear,280,2013-02-13 19:00:00
8:30 PM,60.8,42.8,52,30.18,-9999.0,West,16.1,-,N/A,,Clear,280,2013-02-13 19:30:00
9:00 PM,60.8,42.8,52,30.18,-9999.0,WNW,17.3,-,N/A,,Clear,290,2013-02-13 20:00:00
9:30 PM,59.0,44.6,59,30.18,-9999.0,WNW,16.1,-,N/A,,Clear,290,2013-02-13 20:30:00
10:00 PM,57.2,44.6,63,30.18,-9999.0,WNW,16.1,-,N/A,,Clear,290,2013-02-13 21:00:00
10:30 PM,59.0,44.6,59,30.21,-9999.0,WNW,15.0,-,N/A,,Clear,290,2013-02-13 21:30:00
11:00 PM,59.0,44.6,59,30.21,-9999.0,West,16.1,-,N/A,,Clear,280,2013-02-13 22:00:00
11:30 PM,59.0,44.6,59,30.21,6.2,West,16.1,-,N/A,,Partly Cloudy,280,2013-02-13 22:30:00